createdAt,value
2022-12-23T00:01:24.171Z,8.01
2022-12-23T00:03:51.232Z,8.03
2022-12-23T00:06:19.771Z,8.06
2022-12-23T00:08:46.939Z,8.06
2022-12-23T00:11:17.009Z,8.13
2022-12-23T00:14:05.557Z,8.10
2022-12-23T00:16:35.838Z,7.99
2022-12-23T00:19:02.785Z,7.96
2022-12-23T00:21:29.546Z,7.93
2022-12-23T00:23:56.332Z,7.84
2022-12-23T00:26:24.810Z,7.30
2022-12-23T00:28:55.628Z,7.06
2022-12-23T00:31:22.521Z,6.87
2022-12-23T00:33:51.631Z,6.68
2022-12-23T00:36:21.108Z,6.42
2022-12-23T00:39:11.534Z,6.38
2022-12-23T00:41:57.447Z,6.39
2022-12-23T00:44:25.853Z,6.43
2022-12-23T00:46:52.843Z,6.42
2022-12-23T00:49:39.243Z,6.48
2022-12-23T00:52:07.836Z,6.53
2022-12-23T00:54:34.731Z,6.51
2022-12-23T00:57:02.267Z,6.53
2022-12-23T00:59:30.513Z,6.65
2022-12-23T01:02:16.012Z,6.69
2022-12-23T01:05:01.346Z,6.74
2022-12-23T01:07:28.286Z,6.78
2022-12-23T01:09:55.153Z,6.80
2022-12-23T01:12:22.042Z,6.78
2022-12-23T01:14:50.346Z,6.83
2022-12-23T01:17:17.343Z,6.86
2022-12-23T01:19:44.264Z,6.80
2022-12-23T01:22:11.052Z,6.79
2022-12-23T01:24:37.752Z,6.76
2022-12-23T01:27:04.510Z,6.75
2022-12-23T01:29:31.328Z,6.74
2022-12-23T01:31:59.489Z,6.74
2022-12-23T01:34:31.087Z,6.77
2022-12-23T01:37:01.248Z,6.71
2022-12-23T01:39:28.287Z,6.74
2022-12-23T01:42:13.826Z,6.72
2022-12-23T01:44:54.019Z,6.73
2022-12-23T01:47:29.503Z,6.71
2022-12-23T01:50:00.490Z,6.71
2022-12-23T01:52:27.941Z,6.70
2022-12-23T01:54:56.474Z,6.67
2022-12-23T01:57:24.554Z,6.62
2022-12-23T02:00:10.487Z,6.63
2022-12-23T02:02:59.893Z,6.66
2022-12-23T02:05:27.332Z,6.66
2022-12-23T02:08:13.662Z,6.66
2022-12-23T02:11:00.231Z,6.66
2022-12-23T02:13:35.009Z,6.63
2022-12-23T02:16:17.884Z,6.65
2022-12-23T02:19:01.024Z,6.59
2022-12-23T02:22:05.192Z,6.60
2022-12-23T02:25:00.542Z,6.59
2022-12-23T02:27:30.242Z,6.60
2022-12-23T02:30:24.140Z,6.68
2022-12-23T02:33:16.953Z,6.71
2022-12-23T02:35:53.483Z,6.71
2022-12-23T02:38:26.535Z,6.72
2022-12-23T02:41:01.993Z,6.70
2022-12-23T02:43:35.626Z,6.71
2022-12-23T02:46:07.809Z,6.73
2022-12-23T02:48:42.317Z,6.73
2022-12-23T02:51:13.660Z,6.68
2022-12-23T02:53:45.956Z,6.64
2022-12-23T02:56:15.423Z,6.60
2022-12-23T02:58:47.181Z,6.49
2022-12-23T03:01:16.409Z,6.57
2022-12-23T03:03:47.559Z,6.59
2022-12-23T03:06:20.596Z,6.54
2022-12-23T03:08:49.729Z,6.52
2022-12-23T03:11:18.008Z,6.47
2022-12-23T03:14:12.733Z,6.43
2022-12-23T03:16:51.945Z,6.42
2022-12-23T03:19:26.597Z,6.41
2022-12-23T03:21:59.971Z,6.40
2022-12-23T03:24:37.635Z,6.40
2022-12-23T03:27:09.823Z,6.35
2022-12-23T03:29:42.774Z,6.35
2022-12-23T03:32:12.416Z,6.33
2022-12-23T03:34:43.303Z,6.35
2022-12-23T03:37:13.499Z,6.31
2022-12-23T03:39:43.773Z,6.29
2022-12-23T03:42:19.331Z,6.25
2022-12-23T03:45:19.039Z,6.29
2022-12-23T03:47:44.815Z,6.29
2022-12-23T03:50:16.843Z,6.31
2022-12-23T03:52:51.669Z,6.31
2022-12-23T03:55:23.514Z,6.33
2022-12-23T03:57:58.129Z,6.27
2022-12-23T04:00:28.953Z,6.29
2022-12-23T04:03:03.720Z,6.30
2022-12-23T04:05:35.086Z,6.28
2022-12-23T04:08:10.357Z,6.29
2022-12-23T04:10:37.464Z,6.30
2022-12-23T04:13:04.780Z,6.30
2022-12-23T04:15:32.023Z,6.31
2022-12-23T04:17:59.259Z,6.24
2022-12-23T04:20:26.141Z,6.24
2022-12-23T04:22:54.332Z,6.29
2022-12-23T04:25:21.117Z,6.28
2022-12-23T04:27:47.958Z,6.29
2022-12-23T04:30:15.206Z,6.34
2022-12-23T04:32:42.448Z,6.31
2022-12-23T04:35:11.140Z,6.34
2022-12-23T04:37:38.344Z,6.31
2022-12-23T04:40:07.954Z,6.32
2022-12-23T04:42:34.607Z,6.35
2022-12-23T04:45:01.404Z,6.37
2022-12-23T04:47:28.252Z,6.38
2022-12-23T04:49:55.080Z,6.35
2022-12-23T04:52:22.104Z,6.37
2022-12-23T04:54:48.999Z,6.36
2022-12-23T04:57:17.506Z,6.31
2022-12-23T04:59:44.397Z,6.31
2022-12-23T05:02:11.805Z,6.30
2022-12-23T05:04:38.739Z,6.23
2022-12-23T05:07:05.513Z,6.14
2022-12-23T05:09:32.528Z,6.11
2022-12-23T05:11:59.561Z,6.04
2022-12-23T05:14:27.916Z,5.93
2022-12-23T05:16:54.728Z,5.80
2022-12-23T05:19:21.638Z,5.73
2022-12-23T05:21:48.509Z,5.69
2022-12-23T05:24:15.363Z,5.71
2022-12-23T05:26:47.619Z,5.66
2022-12-23T05:29:14.846Z,5.62
2022-12-23T05:31:43.404Z,5.55
2022-12-23T05:34:10.376Z,5.59
2022-12-23T05:36:37.833Z,5.63
2022-12-23T05:39:04.699Z,5.67
2022-12-23T05:41:31.820Z,5.76
2022-12-23T05:43:58.544Z,5.79
2022-12-23T05:46:27.055Z,5.84
2022-12-23T05:48:55.545Z,5.91
2022-12-23T05:51:22.320Z,5.93
2022-12-23T05:53:49.369Z,5.96
2022-12-23T05:56:16.427Z,5.97
2022-12-23T05:58:43.628Z,5.99
2022-12-23T06:01:10.615Z,5.96
2022-12-23T06:03:37.535Z,6.02
2022-12-23T06:06:06.323Z,6.04
2022-12-23T06:08:33.228Z,6.01
2022-12-23T06:11:00.080Z,6.04
2022-12-23T06:13:26.884Z,6.05
2022-12-23T06:15:53.928Z,6.06
2022-12-23T06:18:20.859Z,6.08
2022-12-23T06:20:48.515Z,6.06
2022-12-23T06:23:16.677Z,6.05
2022-12-23T06:25:43.485Z,6.02
2022-12-23T06:28:10.409Z,6.06
2022-12-23T06:30:37.239Z,6.08
2022-12-23T06:33:04.213Z,6.07
2022-12-23T06:35:30.968Z,6.03
2022-12-23T06:37:57.821Z,6.02
2022-12-23T06:40:26.017Z,6.04
2022-12-23T06:42:52.855Z,6.08
2022-12-23T06:45:20.993Z,6.09
2022-12-23T06:47:47.839Z,6.12
2022-12-23T06:50:14.832Z,6.14
2022-12-23T06:52:41.735Z,6.17
2022-12-23T06:55:10.017Z,6.11
2022-12-23T06:57:38.281Z,6.09
2022-12-23T07:00:06.041Z,6.07
2022-12-23T07:02:33.294Z,6.02
2022-12-23T07:05:00.329Z,5.97
2022-12-23T07:07:27.405Z,6.02
2022-12-23T07:09:54.212Z,6.04
2022-12-23T07:12:21.044Z,6.07
2022-12-23T07:14:49.151Z,6.11
2022-12-23T07:17:16.143Z,6.11
2022-12-23T07:19:42.865Z,6.14
2022-12-23T07:22:12.310Z,6.17
2022-12-23T07:24:38.985Z,6.16
2022-12-23T07:27:05.756Z,6.11
2022-12-23T07:29:32.480Z,6.15
2022-12-23T07:32:01.735Z,6.17
2022-12-23T07:34:28.605Z,6.17
2022-12-23T07:36:55.742Z,6.15
2022-12-23T07:39:22.606Z,6.13
2022-12-23T07:41:55.494Z,6.15
2022-12-23T07:44:30.713Z,6.15
2022-12-23T07:46:57.499Z,6.16
2022-12-23T07:49:25.611Z,6.13
2022-12-23T07:51:52.336Z,6.12
2022-12-23T07:54:19.247Z,6.12
2022-12-23T07:56:46.060Z,6.11
2022-12-23T07:59:12.909Z,6.09
2022-12-23T08:01:40.260Z,6.00
2022-12-23T08:04:07.111Z,6.03
2022-12-23T08:06:36.796Z,6.05
2022-12-23T08:09:03.609Z,6.08
2022-12-23T08:11:30.359Z,6.10
2022-12-23T08:13:57.219Z,6.13
2022-12-23T08:16:24.321Z,6.16
2022-12-23T08:18:51.080Z,6.17
2022-12-23T08:21:20.002Z,6.18
2022-12-23T08:23:48.718Z,6.20
2022-12-23T08:26:20.002Z,6.21
2022-12-23T08:28:48.012Z,6.24
2022-12-23T08:31:17.296Z,6.26
2022-12-23T08:33:46.431Z,6.27
2022-12-23T08:36:19.235Z,6.27
2022-12-23T08:38:52.728Z,6.27
2022-12-23T08:41:22.295Z,6.28
2022-12-23T08:43:49.524Z,6.30
2022-12-23T08:46:16.301Z,6.28
2022-12-23T08:48:48.863Z,6.25
2022-12-23T08:51:18.744Z,6.25
2022-12-23T08:53:46.136Z,6.27
2022-12-23T08:56:18.608Z,6.19
2022-12-23T08:58:47.933Z,6.21
2022-12-23T09:01:17.403Z,6.16
2022-12-23T09:03:45.134Z,6.14
2022-12-23T09:06:14.830Z,6.14
2022-12-23T09:08:42.465Z,6.13
2022-12-23T09:11:10.209Z,6.15
2022-12-23T09:13:38.507Z,6.17
2022-12-23T09:16:06.600Z,6.15
2022-12-23T09:18:34.112Z,6.18
2022-12-23T09:21:02.834Z,6.21
2022-12-23T09:23:29.668Z,6.22
2022-12-23T09:25:56.560Z,6.17
2022-12-23T09:28:23.998Z,6.15
2022-12-23T09:30:52.641Z,6.07
2022-12-23T09:33:19.899Z,6.10
2022-12-23T09:35:46.765Z,5.97
2022-12-23T09:38:13.713Z,5.92
2022-12-23T09:40:42.368Z,5.93
2022-12-23T09:43:20.510Z,5.90
2022-12-23T09:46:09.665Z,5.87
2022-12-23T09:48:41.238Z,5.91
2022-12-23T09:51:10.690Z,5.86
2022-12-23T09:53:48.500Z,5.87
2022-12-23T09:56:23.175Z,5.83
2022-12-23T09:59:01.878Z,5.80
2022-12-23T10:01:33.756Z,5.78
2022-12-23T10:04:37.047Z,5.73
2022-12-23T10:07:17.543Z,5.75
2022-12-23T10:09:49.189Z,5.71
2022-12-23T10:12:27.228Z,5.70
2022-12-23T10:14:58.628Z,5.66
2022-12-23T10:17:31.612Z,5.68
2022-12-23T10:20:02.225Z,5.63
2022-12-23T10:22:36.742Z,5.58
2022-12-23T10:25:11.030Z,5.52
2022-12-23T10:27:40.204Z,5.58
2022-12-23T10:30:34.281Z,5.63
2022-12-23T10:33:08.861Z,5.44
2022-12-23T10:35:54.028Z,5.39
2022-12-23T10:38:33.244Z,5.35
2022-12-23T10:41:09.446Z,5.37
2022-12-23T10:43:50.213Z,5.28
2022-12-23T10:46:28.230Z,5.27
2022-12-23T10:49:03.757Z,5.31
2022-12-23T10:51:34.292Z,5.26
2022-12-23T10:54:06.161Z,5.29
2022-12-23T10:56:33.101Z,5.33
2022-12-23T10:59:01.165Z,5.36
2022-12-23T11:01:30.308Z,5.23
2022-12-23T11:04:06.224Z,5.34
2022-12-23T11:06:38.081Z,5.32
2022-12-23T11:09:06.346Z,5.39
2022-12-23T11:11:53.327Z,5.39
2022-12-23T11:14:34.898Z,5.37
2022-12-23T11:17:02.086Z,5.37
2022-12-23T11:19:30.286Z,5.42
2022-12-23T11:21:59.024Z,5.40
2022-12-23T11:24:27.312Z,5.36
2022-12-23T11:27:00.793Z,5.31
2022-12-23T11:29:31.111Z,5.33
2022-12-23T11:31:58.123Z,5.36
2022-12-23T11:34:27.133Z,5.40
2022-12-23T11:37:01.807Z,5.34
2022-12-23T11:39:34.434Z,5.39
2022-12-23T11:42:11.948Z,5.36
2022-12-23T11:44:42.506Z,5.33
2022-12-23T11:47:35.883Z,5.39
2022-12-23T11:50:26.837Z,5.44
2022-12-23T11:53:00.896Z,5.43
2022-12-23T11:55:33.273Z,5.48
2022-12-23T11:58:02.131Z,5.48
2022-12-23T12:00:35.349Z,5.48
2022-12-23T12:03:05.094Z,5.55
2022-12-23T12:05:33.921Z,5.67
2022-12-23T12:08:05.938Z,5.75
2022-12-23T12:10:35.374Z,5.82
2022-12-23T12:13:04.994Z,5.87
2022-12-23T12:15:44.780Z,5.86
2022-12-23T12:18:15.285Z,5.91
2022-12-23T12:20:45.691Z,5.90
2022-12-23T12:23:18.648Z,5.90
2022-12-23T12:25:50.699Z,5.93
2022-12-23T12:28:20.228Z,5.90
2022-12-23T12:30:50.864Z,5.89
2022-12-23T12:33:21.305Z,5.91
2022-12-23T12:35:54.288Z,5.88
2022-12-23T12:38:25.979Z,5.85
2022-12-23T12:40:57.391Z,5.88
2022-12-23T12:43:31.042Z,5.90
2022-12-23T12:46:11.831Z,5.88
2022-12-23T12:48:48.045Z,5.89
2022-12-23T12:51:23.095Z,5.93
2022-12-23T12:54:14.332Z,5.89
2022-12-23T12:56:46.524Z,5.81
2022-12-23T12:59:17.220Z,5.78
2022-12-23T13:01:53.312Z,5.77
2022-12-23T13:04:43.149Z,5.67
2022-12-23T13:07:18.607Z,5.72
2022-12-23T13:09:59.087Z,5.70
2022-12-23T13:12:43.006Z,5.73
2022-12-23T13:15:22.109Z,5.74
2022-12-23T13:18:04.099Z,5.78
2022-12-23T13:20:36.824Z,5.74
2022-12-23T13:23:41.866Z,5.73
2022-12-23T13:26:10.032Z,5.71
2022-12-23T13:28:45.355Z,5.68
2022-12-23T13:31:24.021Z,5.69
2022-12-23T13:33:58.891Z,5.63
2022-12-23T13:36:42.322Z,5.57
2022-12-23T13:39:30.455Z,5.52
2022-12-23T13:42:05.737Z,5.58
2022-12-23T13:44:33.756Z,5.57
2022-12-23T13:47:09.671Z,5.34
2022-12-23T13:49:52.977Z,5.62
2022-12-23T13:52:32.109Z,5.69
2022-12-23T13:55:11.628Z,5.72
2022-12-23T13:57:49.333Z,5.76
2022-12-23T14:00:26.709Z,5.80
2022-12-23T14:03:06.092Z,5.80
2022-12-23T14:05:36.736Z,5.84
2022-12-23T14:08:06.667Z,5.88
2022-12-23T14:10:34.888Z,5.99
2022-12-23T14:13:05.171Z,6.04
2022-12-23T14:15:55.403Z,6.11
2022-12-23T14:19:06.981Z,6.19
2022-12-23T14:21:44.097Z,6.22
2022-12-23T14:24:44.633Z,6.17
2022-12-23T14:27:31.156Z,6.23
2022-12-23T14:30:09.924Z,6.21
2022-12-23T14:32:43.980Z,6.18
2022-12-23T14:35:26.543Z,6.19
2022-12-23T14:38:22.811Z,6.15
2022-12-23T14:40:53.147Z,6.20
2022-12-23T14:43:57.484Z,6.21
2022-12-23T14:46:54.274Z,6.17
2022-12-23T14:49:38.843Z,6.17
2022-12-23T14:52:48.434Z,6.18
2022-12-23T14:55:47.050Z,6.15
2022-12-23T14:58:37.805Z,6.06
2022-12-23T15:01:10.348Z,6.00
2022-12-23T15:03:44.608Z,5.93
2022-12-23T15:06:16.427Z,5.93
2022-12-23T15:08:46.094Z,5.87
2022-12-23T15:11:21.422Z,5.86
2022-12-23T15:13:50.990Z,5.76
2022-12-23T15:16:18.271Z,5.76
2022-12-23T15:18:58.051Z,5.75
2022-12-23T15:21:32.610Z,5.74
2022-12-23T15:24:00.820Z,5.73
2022-12-23T15:26:31.286Z,5.70
2022-12-23T15:29:00.382Z,5.69
2022-12-23T15:31:31.135Z,5.62
2022-12-23T15:34:07.820Z,5.64
2022-12-23T15:36:38.033Z,5.66
2022-12-23T15:39:09.999Z,5.66
2022-12-23T15:41:43.519Z,5.67
2022-12-23T15:44:15.581Z,5.64
2022-12-23T15:46:43.107Z,5.67
2022-12-23T15:49:12.254Z,5.64
2022-12-23T15:52:06.347Z,5.66
2022-12-23T15:54:34.086Z,5.68
2022-12-23T15:57:03.950Z,5.67
2022-12-23T15:59:36.848Z,5.69
2022-12-23T16:02:32.722Z,5.74
2022-12-23T16:05:01.663Z,5.69
2022-12-23T16:07:34.516Z,5.70
2022-12-23T16:10:04.427Z,5.71
2022-12-23T16:12:33.877Z,5.72
2022-12-23T16:15:01.129Z,5.74
2022-12-23T16:17:33.436Z,5.75
2022-12-23T16:20:24.671Z,5.78
2022-12-23T16:22:53.419Z,5.80
2022-12-23T16:25:24.803Z,5.87
2022-12-23T16:27:56.810Z,5.88
2022-12-23T16:30:29.139Z,5.91
2022-12-23T16:32:58.783Z,5.91
2022-12-23T16:35:48.063Z,5.93
2022-12-23T16:38:18.312Z,5.94
2022-12-23T16:40:47.688Z,5.96
2022-12-23T16:43:16.006Z,5.92
2022-12-23T16:45:44.972Z,5.85
2022-12-23T16:48:19.060Z,5.79
2022-12-23T16:50:46.608Z,5.78
2022-12-23T16:53:15.688Z,5.71
2022-12-23T16:55:50.280Z,5.66
2022-12-23T16:58:19.680Z,5.67
2022-12-23T17:00:46.727Z,5.64
2022-12-23T17:03:16.886Z,5.57
2022-12-23T17:05:44.168Z,5.58
2022-12-23T17:08:10.951Z,5.56
2022-12-23T17:10:41.299Z,5.53
2022-12-23T17:13:18.247Z,5.57
2022-12-23T17:15:45.360Z,5.58
2022-12-23T17:18:13.348Z,5.58
2022-12-23T17:20:41.286Z,5.55
2022-12-23T17:23:19.243Z,5.63
2022-12-23T17:25:47.560Z,5.58
2022-12-23T17:28:15.718Z,5.63
2022-12-23T17:30:42.855Z,5.63
2022-12-23T17:33:16.389Z,5.66
2022-12-23T17:35:43.227Z,5.68
2022-12-23T17:38:13.651Z,5.74
2022-12-23T17:40:41.296Z,5.79
2022-12-23T17:43:13.810Z,5.78
2022-12-23T17:45:40.909Z,5.79
2022-12-23T17:48:14.851Z,5.84
2022-12-23T17:50:45.579Z,5.91
2022-12-23T17:53:14.435Z,5.88
2022-12-23T17:55:41.730Z,5.78
2022-12-23T17:58:10.346Z,5.73
2022-12-23T18:00:37.897Z,5.73
2022-12-23T18:03:05.815Z,5.77
2022-12-23T18:05:35.433Z,5.84
2022-12-23T18:08:03.068Z,5.94
2022-12-23T18:10:33.986Z,5.95
2022-12-23T18:13:03.688Z,5.96
2022-12-23T18:15:34.918Z,5.98
2022-12-23T18:18:09.625Z,5.98
2022-12-23T18:20:36.455Z,6.05
2022-12-23T18:23:03.375Z,6.07
2022-12-23T18:25:30.392Z,6.04
2022-12-23T18:27:57.251Z,6.03
2022-12-23T18:30:24.391Z,5.99
2022-12-23T18:32:52.641Z,5.97
2022-12-23T18:35:26.674Z,5.99
2022-12-23T18:37:53.987Z,5.95
2022-12-23T18:40:21.035Z,5.99
2022-12-23T18:42:48.472Z,5.92
2022-12-23T18:45:28.215Z,5.97
2022-12-23T18:47:56.766Z,6.00
2022-12-23T18:50:24.004Z,6.01
2022-12-23T18:52:51.031Z,6.06
2022-12-23T18:55:18.520Z,6.08
2022-12-23T18:57:45.321Z,6.06
2022-12-23T19:00:14.290Z,6.05
2022-12-23T19:02:41.231Z,6.05
2022-12-23T19:05:15.314Z,5.93
2022-12-23T19:07:42.521Z,6.03
2022-12-23T19:10:14.294Z,6.02
2022-12-23T19:12:41.110Z,5.96
2022-12-23T19:15:08.811Z,5.91
2022-12-23T19:17:35.588Z,5.87
2022-12-23T19:20:02.310Z,5.79
2022-12-23T19:22:30.739Z,5.81
2022-12-23T19:25:05.729Z,5.84
2022-12-23T19:27:33.404Z,5.87
2022-12-23T19:30:00.427Z,5.90
2022-12-23T19:32:27.211Z,5.85
2022-12-23T19:34:54.049Z,5.85
2022-12-23T19:37:20.936Z,5.80
2022-12-23T19:39:50.272Z,5.77
2022-12-23T19:42:17.392Z,5.71
2022-12-23T19:44:44.296Z,5.71
2022-12-23T19:47:11.095Z,5.68
2022-12-23T19:49:38.193Z,5.71
2022-12-23T19:52:05.518Z,5.55
2022-12-23T19:54:33.043Z,5.48
2022-12-23T19:57:01.529Z,5.38
2022-12-23T19:59:28.363Z,5.43
2022-12-23T20:01:55.347Z,5.44
2022-12-23T20:04:24.971Z,5.48
2022-12-23T20:06:52.017Z,5.55
2022-12-23T20:09:18.876Z,5.61
2022-12-23T20:11:47.756Z,5.68
2022-12-23T20:14:17.485Z,5.78
2022-12-23T20:16:45.017Z,5.84
2022-12-23T20:19:11.823Z,5.87
2022-12-23T20:21:38.749Z,5.93
2022-12-23T20:24:06.816Z,6.00
2022-12-23T20:26:34.202Z,5.97
2022-12-23T20:29:03.630Z,5.93
2022-12-23T20:31:34.197Z,5.95
2022-12-23T20:34:01.728Z,5.86
2022-12-23T20:36:30.491Z,5.95
2022-12-23T20:38:57.612Z,5.92
2022-12-23T20:41:26.471Z,5.89
2022-12-23T20:44:31.552Z,5.99
2022-12-23T20:46:42.754Z,6.02
2022-12-23T20:49:09.522Z,6.09
2022-12-23T20:51:36.475Z,6.14
2022-12-23T20:54:03.444Z,6.18
2022-12-23T20:56:31.665Z,6.07
2022-12-23T20:59:00.433Z,6.12
2022-12-23T21:01:30.153Z,6.08
2022-12-23T21:04:01.244Z,6.03
2022-12-23T21:06:29.325Z,6.04
2022-12-23T21:08:59.011Z,6.06
2022-12-23T21:11:27.934Z,6.04
2022-12-23T21:13:57.823Z,6.03
2022-12-23T21:16:29.481Z,6.01
2022-12-23T21:18:58.540Z,5.94
2022-12-23T21:21:27.019Z,5.92
2022-12-23T21:23:55.154Z,5.87
2022-12-23T21:26:23.769Z,5.91
2022-12-23T21:28:52.141Z,5.90
2022-12-23T21:31:21.471Z,5.92
2022-12-23T21:33:49.660Z,5.92
2022-12-23T21:36:21.081Z,5.95
2022-12-23T21:38:49.332Z,5.96
2022-12-23T21:41:19.056Z,5.92
2022-12-23T21:43:45.820Z,5.94
2022-12-23T21:46:15.110Z,5.92
2022-12-23T21:48:43.078Z,5.89
2022-12-23T21:51:12.481Z,5.85
2022-12-23T21:53:42.736Z,5.84
2022-12-23T21:56:12.443Z,5.86
2022-12-23T21:58:39.442Z,5.90
2022-12-23T22:01:08.009Z,5.86
2022-12-23T22:03:35.352Z,5.85
2022-12-23T22:06:10.143Z,5.85
2022-12-23T22:08:37.538Z,5.80
2022-12-23T22:11:08.857Z,5.76
2022-12-23T22:13:36.490Z,5.82
2022-12-23T22:16:05.070Z,5.86
2022-12-23T22:18:32.153Z,5.86
2022-12-23T22:20:59.063Z,5.89
2022-12-23T22:23:26.057Z,5.89
2022-12-23T22:25:53.908Z,5.91
2022-12-23T22:28:22.463Z,5.93
2022-12-23T22:30:49.534Z,5.96
2022-12-23T22:33:16.597Z,5.96
2022-12-23T22:35:43.827Z,5.95
2022-12-23T22:38:10.640Z,5.91
2022-12-23T22:40:37.596Z,5.90
2022-12-23T22:43:04.401Z,5.93
2022-12-23T22:45:32.775Z,5.95
2022-12-23T22:48:00.116Z,5.93
2022-12-23T22:50:27.090Z,5.98
2022-12-23T22:52:53.913Z,6.01
2022-12-23T22:55:20.894Z,6.02
2022-12-23T22:57:47.784Z,6.08
2022-12-23T23:00:15.122Z,6.08
2022-12-23T23:02:43.270Z,6.08
2022-12-23T23:05:13.030Z,6.10
2022-12-23T23:07:40.325Z,6.11
2022-12-23T23:10:08.634Z,6.09
2022-12-23T23:12:35.481Z,6.09
2022-12-23T23:15:02.328Z,6.19
2022-12-23T23:17:29.156Z,6.33
2022-12-23T23:19:57.336Z,6.69
2022-12-23T23:22:25.492Z,7.01
2022-12-23T23:24:52.683Z,7.18
2022-12-23T23:27:19.566Z,7.30
2022-12-23T23:29:46.824Z,7.49
2022-12-23T23:32:13.693Z,7.77
2022-12-23T23:34:42.265Z,7.92
2022-12-23T23:37:10.581Z,7.88
2022-12-23T23:39:37.425Z,8.03
2022-12-23T23:42:04.703Z,8.03
2022-12-23T23:44:31.563Z,7.96
2022-12-23T23:46:58.444Z,8.02
2022-12-23T23:49:25.578Z,8.08
2022-12-23T23:51:52.463Z,7.97
2022-12-23T23:54:20.685Z,8.05
2022-12-23T23:56:47.507Z,8.11
2022-12-23T23:59:14.514Z,8.13
